sensor_id;sensor_type;location;lat;lon;timestamp;P1;durP1;ratioP1;P2;durP2;ratioP2
16890;SDS011;8562;52.246;20.966;2022-09-09T00:07:33;3.60;;;2.50;;
16890;SDS011;8562;52.246;20.966;2022-09-09T00:09:58;5.83;;;2.90;;
16890;SDS011;8562;52.246;20.966;2022-09-09T00:15:14;4.27;;;2.90;;
16890;SDS011;8562;52.246;20.966;2022-09-09T00:17:58;5.70;;;2.60;;
16890;SDS011;8562;52.246;20.966;2022-09-09T00:20:29;7.33;;;3.43;;
16890;SDS011;8562;52.246;20.966;2022-09-09T00:23:00;7.40;;;3.57;;
16890;SDS011;8562;52.246;20.966;2022-09-09T00:25:33;5.00;;;3.07;;
16890;SDS011;8562;52.246;20.966;2022-09-09T00:28:01;6.20;;;3.07;;
16890;SDS011;8562;52.246;20.966;2022-09-09T00:30:31;6.43;;;3.13;;
16890;SDS011;8562;52.246;20.966;2022-09-09T00:33:00;5.17;;;2.73;;
16890;SDS011;8562;52.246;20.966;2022-09-09T00:35:34;6.90;;;3.47;;
16890;SDS011;8562;52.246;20.966;2022-09-09T00:38:13;5.33;;;3.37;;
16890;SDS011;8562;52.246;20.966;2022-09-09T00:43:28;4.43;;;3.23;;
16890;SDS011;8562;52.246;20.966;2022-09-09T00:48:22;6.13;;;3.57;;
16890;SDS011;8562;52.246;20.966;2022-09-09T00:51:00;6.50;;;3.73;;
16890;SDS011;8562;52.246;20.966;2022-09-09T00:53:34;6.53;;;2.90;;
16890;SDS011;8562;52.246;20.966;2022-09-09T00:56:13;6.63;;;3.90;;
16890;SDS011;8562;52.246;20.966;2022-09-09T00:58:42;4.17;;;3.07;;
16890;SDS011;8562;52.246;20.966;2022-09-09T01:01:13;6.63;;;3.50;;
16890;SDS011;8562;52.246;20.966;2022-09-09T01:03:43;8.70;;;3.90;;
16890;SDS011;8562;52.246;20.966;2022-09-09T01:06:14;7.10;;;3.60;;
16890;SDS011;8562;52.246;20.966;2022-09-09T01:11:21;6.40;;;4.37;;
16890;SDS011;8562;52.246;20.966;2022-09-09T01:13:49;7.57;;;3.83;;
16890;SDS011;8562;52.246;20.966;2022-09-09T01:16:18;8.37;;;4.07;;
16890;SDS011;8562;52.246;20.966;2022-09-09T01:18:46;3.80;;;3.43;;
16890;SDS011;8562;52.246;20.966;2022-09-09T01:21:22;8.43;;;3.97;;
16890;SDS011;8562;52.246;20.966;2022-09-09T01:26:30;6.33;;;4.37;;
16890;SDS011;8562;52.246;20.966;2022-09-09T01:29:02;6.00;;;3.77;;
16890;SDS011;8562;52.246;20.966;2022-09-09T01:31:36;5.87;;;3.50;;
16890;SDS011;8562;52.246;20.966;2022-09-09T01:34:13;8.30;;;3.70;;
16890;SDS011;8562;52.246;20.966;2022-09-09T01:36:42;6.47;;;3.83;;
16890;SDS011;8562;52.246;20.966;2022-09-09T01:39:10;6.90;;;3.90;;
16890;SDS011;8562;52.246;20.966;2022-09-09T01:41:38;7.80;;;3.50;;
16890;SDS011;8562;52.246;20.966;2022-09-09T01:44:08;5.30;;;3.37;;
16890;SDS011;8562;52.246;20.966;2022-09-09T01:46:37;8.23;;;4.50;;
16890;SDS011;8562;52.246;20.966;2022-09-09T01:49:05;7.30;;;3.90;;
16890;SDS011;8562;52.246;20.966;2022-09-09T01:51:32;6.70;;;4.47;;
16890;SDS011;8562;52.246;20.966;2022-09-09T01:54:02;6.30;;;4.00;;
16890;SDS011;8562;52.246;20.966;2022-09-09T02:04:27;4.93;;;3.63;;
16890;SDS011;8562;52.246;20.966;2022-09-09T02:06:58;7.40;;;4.03;;
16890;SDS011;8562;52.246;20.966;2022-09-09T02:09:29;7.00;;;4.17;;
16890;SDS011;8562;52.246;20.966;2022-09-09T02:12:01;9.03;;;4.63;;
16890;SDS011;8562;52.246;20.966;2022-09-09T02:14:39;8.27;;;4.03;;
16890;SDS011;8562;52.246;20.966;2022-09-09T02:17:08;6.93;;;3.77;;
16890;SDS011;8562;52.246;20.966;2022-09-09T02:20:05;10.17;;;4.60;;
16890;SDS011;8562;52.246;20.966;2022-09-09T02:22:41;5.97;;;3.53;;
16890;SDS011;8562;52.246;20.966;2022-09-09T02:25:10;8.10;;;3.93;;
16890;SDS011;8562;52.246;20.966;2022-09-09T02:27:38;6.97;;;4.50;;
16890;SDS011;8562;52.246;20.966;2022-09-09T02:30:05;5.80;;;4.50;;
16890;SDS011;8562;52.246;20.966;2022-09-09T02:32:43;6.67;;;4.60;;
16890;SDS011;8562;52.246;20.966;2022-09-09T02:35:14;6.77;;;4.63;;
16890;SDS011;8562;52.246;20.966;2022-09-09T02:37:42;9.53;;;4.93;;
16890;SDS011;8562;52.246;20.966;2022-09-09T02:40:14;8.03;;;4.97;;
16890;SDS011;8562;52.246;20.966;2022-09-09T02:42:45;8.70;;;3.90;;
16890;SDS011;8562;52.246;20.966;2022-09-09T02:45:12;9.80;;;4.80;;
16890;SDS011;8562;52.246;20.966;2022-09-09T02:47:50;8.53;;;4.77;;
16890;SDS011;8562;52.246;20.966;2022-09-09T02:50:33;5.90;;;3.97;;
16890;SDS011;8562;52.246;20.966;2022-09-09T02:53:20;8.10;;;5.20;;
16890;SDS011;8562;52.246;20.966;2022-09-09T02:55:52;6.53;;;4.20;;
16890;SDS011;8562;52.246;20.966;2022-09-09T02:58:21;7.60;;;4.30;;
16890;SDS011;8562;52.246;20.966;2022-09-09T03:01:02;7.70;;;5.23;;
16890;SDS011;8562;52.246;20.966;2022-09-09T03:03:29;9.00;;;5.13;;
16890;SDS011;8562;52.246;20.966;2022-09-09T03:05:56;11.87;;;5.53;;
16890;SDS011;8562;52.246;20.966;2022-09-09T03:08:22;6.50;;;4.83;;
16890;SDS011;8562;52.246;20.966;2022-09-09T03:10:49;7.50;;;4.87;;
16890;SDS011;8562;52.246;20.966;2022-09-09T03:13:15;5.33;;;4.50;;
16890;SDS011;8562;52.246;20.966;2022-09-09T03:15:41;6.97;;;4.60;;
16890;SDS011;8562;52.246;20.966;2022-09-09T03:18:13;5.47;;;4.23;;
16890;SDS011;8562;52.246;20.966;2022-09-09T03:20:39;8.93;;;4.63;;
16890;SDS011;8562;52.246;20.966;2022-09-09T03:23:07;8.97;;;5.53;;
16890;SDS011;8562;52.246;20.966;2022-09-09T03:25:34;7.43;;;4.37;;
16890;SDS011;8562;52.246;20.966;2022-09-09T03:28:00;7.53;;;4.13;;
16890;SDS011;8562;52.246;20.966;2022-09-09T03:30:27;7.63;;;4.33;;
16890;SDS011;8562;52.246;20.966;2022-09-09T03:32:55;10.57;;;4.33;;
16890;SDS011;8562;52.246;20.966;2022-09-09T03:35:25;5.67;;;3.70;;
16890;SDS011;8562;52.246;20.966;2022-09-09T03:37:51;6.97;;;4.20;;
16890;SDS011;8562;52.246;20.966;2022-09-09T03:40:17;4.87;;;3.63;;
16890;SDS011;8562;52.246;20.966;2022-09-09T03:42:45;7.73;;;4.40;;
16890;SDS011;8562;52.246;20.966;2022-09-09T03:45:11;5.77;;;3.70;;
16890;SDS011;8562;52.246;20.966;2022-09-09T03:47:39;8.83;;;4.57;;
16890;SDS011;8562;52.246;20.966;2022-09-09T03:50:06;4.20;;;3.80;;
16890;SDS011;8562;52.246;20.966;2022-09-09T03:52:36;3.87;;;3.23;;
16890;SDS011;8562;52.246;20.966;2022-09-09T03:55:04;5.27;;;4.20;;
16890;SDS011;8562;52.246;20.966;2022-09-09T03:57:31;5.37;;;4.03;;
16890;SDS011;8562;52.246;20.966;2022-09-09T04:00:04;5.13;;;3.90;;
16890;SDS011;8562;52.246;20.966;2022-09-09T04:02:41;9.20;;;4.60;;
16890;SDS011;8562;52.246;20.966;2022-09-09T04:05:11;6.40;;;3.80;;
16890;SDS011;8562;52.246;20.966;2022-09-09T04:07:40;5.87;;;3.80;;
16890;SDS011;8562;52.246;20.966;2022-09-09T04:10:06;5.37;;;4.10;;
16890;SDS011;8562;52.246;20.966;2022-09-09T04:12:34;5.53;;;3.73;;
16890;SDS011;8562;52.246;20.966;2022-09-09T04:15:00;5.67;;;4.07;;
16890;SDS011;8562;52.246;20.966;2022-09-09T04:17:27;5.10;;;4.10;;
16890;SDS011;8562;52.246;20.966;2022-09-09T04:19:53;6.53;;;3.80;;
16890;SDS011;8562;52.246;20.966;2022-09-09T04:22:21;4.47;;;3.30;;
16890;SDS011;8562;52.246;20.966;2022-09-09T04:24:48;6.63;;;3.43;;
16890;SDS011;8562;52.246;20.966;2022-09-09T04:27:16;4.37;;;3.30;;
16890;SDS011;8562;52.246;20.966;2022-09-09T04:29:42;5.47;;;3.07;;
16890;SDS011;8562;52.246;20.966;2022-09-09T04:32:08;5.50;;;3.83;;
16890;SDS011;8562;52.246;20.966;2022-09-09T04:34:35;5.27;;;3.80;;
16890;SDS011;8562;52.246;20.966;2022-09-09T04:37:01;4.87;;;3.70;;
16890;SDS011;8562;52.246;20.966;2022-09-09T04:39:27;4.33;;;3.53;;
16890;SDS011;8562;52.246;20.966;2022-09-09T04:41:54;5.30;;;3.50;;
16890;SDS011;8562;52.246;20.966;2022-09-09T04:44:21;7.03;;;3.97;;
16890;SDS011;8562;52.246;20.966;2022-09-09T04:46:47;4.20;;;3.27;;
16890;SDS011;8562;52.246;20.966;2022-09-09T04:49:14;4.80;;;3.43;;
16890;SDS011;8562;52.246;20.966;2022-09-09T04:51:41;4.77;;;3.30;;
16890;SDS011;8562;52.246;20.966;2022-09-09T04:54:08;6.20;;;3.60;;
16890;SDS011;8562;52.246;20.966;2022-09-09T04:56:35;3.60;;;3.07;;
16890;SDS011;8562;52.246;20.966;2022-09-09T04:59:01;4.73;;;3.73;;
16890;SDS011;8562;52.246;20.966;2022-09-09T05:01:44;6.87;;;3.57;;
16890;SDS011;8562;52.246;20.966;2022-09-09T05:04:10;4.67;;;3.67;;
16890;SDS011;8562;52.246;20.966;2022-09-09T05:06:37;3.53;;;3.03;;
16890;SDS011;8562;52.246;20.966;2022-09-09T05:09:04;8.07;;;4.30;;
16890;SDS011;8562;52.246;20.966;2022-09-09T05:11:30;4.13;;;3.10;;
16890;SDS011;8562;52.246;20.966;2022-09-09T05:14:20;4.93;;;2.83;;
16890;SDS011;8562;52.246;20.966;2022-09-09T05:16:46;9.87;;;4.53;;
16890;SDS011;8562;52.246;20.966;2022-09-09T05:19:13;4.13;;;3.20;;
16890;SDS011;8562;52.246;20.966;2022-09-09T05:21:45;10.90;;;3.67;;
16890;SDS011;8562;52.246;20.966;2022-09-09T05:24:14;3.07;;;2.77;;
16890;SDS011;8562;52.246;20.966;2022-09-09T05:26:41;3.43;;;3.00;;
16890;SDS011;8562;52.246;20.966;2022-09-09T05:29:08;4.77;;;3.17;;
16890;SDS011;8562;52.246;20.966;2022-09-09T05:31:35;6.33;;;3.00;;
16890;SDS011;8562;52.246;20.966;2022-09-09T05:34:07;4.50;;;3.07;;
16890;SDS011;8562;52.246;20.966;2022-09-09T05:36:33;7.20;;;4.03;;
16890;SDS011;8562;52.246;20.966;2022-09-09T05:38:59;3.93;;;3.47;;
16890;SDS011;8562;52.246;20.966;2022-09-09T05:41:28;4.33;;;3.07;;
16890;SDS011;8562;52.246;20.966;2022-09-09T05:43:56;2.40;;;2.20;;
16890;SDS011;8562;52.246;20.966;2022-09-09T05:46:26;4.43;;;2.93;;
16890;SDS011;8562;52.246;20.966;2022-09-09T05:48:54;5.07;;;3.10;;
16890;SDS011;8562;52.246;20.966;2022-09-09T05:51:29;4.33;;;3.40;;
16890;SDS011;8562;52.246;20.966;2022-09-09T05:53:57;5.80;;;3.10;;
16890;SDS011;8562;52.246;20.966;2022-09-09T05:56:26;5.47;;;3.50;;
16890;SDS011;8562;52.246;20.966;2022-09-09T05:58:55;3.30;;;2.83;;
16890;SDS011;8562;52.246;20.966;2022-09-09T06:01:23;3.97;;;3.00;;
16890;SDS011;8562;52.246;20.966;2022-09-09T06:03:50;3.57;;;2.73;;
16890;SDS011;8562;52.246;20.966;2022-09-09T06:06:21;3.23;;;2.93;;
16890;SDS011;8562;52.246;20.966;2022-09-09T06:08:48;5.47;;;3.83;;
16890;SDS011;8562;52.246;20.966;2022-09-09T06:11:17;5.03;;;3.47;;
16890;SDS011;8562;52.246;20.966;2022-09-09T06:13:44;7.20;;;3.43;;
16890;SDS011;8562;52.246;20.966;2022-09-09T06:16:11;4.60;;;3.60;;
16890;SDS011;8562;52.246;20.966;2022-09-09T06:18:39;4.40;;;3.77;;
16890;SDS011;8562;52.246;20.966;2022-09-09T06:21:06;3.53;;;3.23;;
16890;SDS011;8562;52.246;20.966;2022-09-09T06:23:33;3.97;;;3.63;;
16890;SDS011;8562;52.246;20.966;2022-09-09T06:26:06;3.60;;;3.27;;
16890;SDS011;8562;52.246;20.966;2022-09-09T06:28:34;3.20;;;2.90;;
16890;SDS011;8562;52.246;20.966;2022-09-09T06:31:01;4.23;;;3.83;;
16890;SDS011;8562;52.246;20.966;2022-09-09T06:33:32;4.17;;;3.27;;
16890;SDS011;8562;52.246;20.966;2022-09-09T06:36:01;3.77;;;3.43;;
16890;SDS011;8562;52.246;20.966;2022-09-09T06:38:29;3.70;;;3.37;;
16890;SDS011;8562;52.246;20.966;2022-09-09T06:40:56;4.23;;;3.70;;
16890;SDS011;8562;52.246;20.966;2022-09-09T06:43:23;6.53;;;4.03;;
16890;SDS011;8562;52.246;20.966;2022-09-09T06:46:00;3.87;;;3.50;;
16890;SDS011;8562;52.246;20.966;2022-09-09T06:48:27;6.00;;;4.07;;
16890;SDS011;8562;52.246;20.966;2022-09-09T06:51:04;7.07;;;4.10;;
16890;SDS011;8562;52.246;20.966;2022-09-09T06:53:31;4.20;;;3.40;;
16890;SDS011;8562;52.246;20.966;2022-09-09T06:56:02;3.80;;;3.40;;
16890;SDS011;8562;52.246;20.966;2022-09-09T06:58:40;4.17;;;3.53;;
16890;SDS011;8562;52.246;20.966;2022-09-09T07:01:08;6.37;;;4.67;;
16890;SDS011;8562;52.246;20.966;2022-09-09T07:03:36;4.97;;;4.00;;
16890;SDS011;8562;52.246;20.966;2022-09-09T07:06:02;7.43;;;4.63;;
16890;SDS011;8562;52.246;20.966;2022-09-09T07:08:29;6.83;;;4.50;;
16890;SDS011;8562;52.246;20.966;2022-09-09T07:11:03;4.83;;;4.27;;
16890;SDS011;8562;52.246;20.966;2022-09-09T07:13:35;4.33;;;3.93;;
16890;SDS011;8562;52.246;20.966;2022-09-09T07:16:06;5.53;;;4.43;;
16890;SDS011;8562;52.246;20.966;2022-09-09T07:18:32;4.57;;;3.93;;
16890;SDS011;8562;52.246;20.966;2022-09-09T07:21:00;7.63;;;4.40;;
16890;SDS011;8562;52.246;20.966;2022-09-09T07:23:28;7.07;;;5.10;;
16890;SDS011;8562;52.246;20.966;2022-09-09T07:25:55;5.43;;;4.30;;
16890;SDS011;8562;52.246;20.966;2022-09-09T07:28:24;7.20;;;5.30;;
16890;SDS011;8562;52.246;20.966;2022-09-09T07:30:58;9.13;;;5.23;;
16890;SDS011;8562;52.246;20.966;2022-09-09T07:33:26;10.33;;;5.67;;
16890;SDS011;8562;52.246;20.966;2022-09-09T07:35:52;7.13;;;5.40;;
16890;SDS011;8562;52.246;20.966;2022-09-09T07:38:19;7.93;;;5.73;;
16890;SDS011;8562;52.246;20.966;2022-09-09T07:40:46;6.00;;;4.37;;
16890;SDS011;8562;52.246;20.966;2022-09-09T07:43:13;5.10;;;4.23;;
16890;SDS011;8562;52.246;20.966;2022-09-09T07:45:43;6.00;;;4.97;;
16890;SDS011;8562;52.246;20.966;2022-09-09T07:48:09;8.13;;;6.37;;
16890;SDS011;8562;52.246;20.966;2022-09-09T07:50:36;6.07;;;5.17;;
16890;SDS011;8562;52.246;20.966;2022-09-09T07:53:02;8.10;;;5.07;;
16890;SDS011;8562;52.246;20.966;2022-09-09T07:55:30;7.63;;;5.27;;
16890;SDS011;8562;52.246;20.966;2022-09-09T07:57:56;8.87;;;5.03;;
16890;SDS011;8562;52.246;20.966;2022-09-09T08:00:22;13.40;;;5.80;;
16890;SDS011;8562;52.246;20.966;2022-09-09T08:02:52;7.67;;;6.00;;
16890;SDS011;8562;52.246;20.966;2022-09-09T08:05:19;8.83;;;6.00;;
16890;SDS011;8562;52.246;20.966;2022-09-09T08:07:47;7.97;;;5.97;;
16890;SDS011;8562;52.246;20.966;2022-09-09T08:10:14;8.77;;;6.67;;
16890;SDS011;8562;52.246;20.966;2022-09-09T08:12:43;9.37;;;6.50;;
16890;SDS011;8562;52.246;20.966;2022-09-09T08:15:09;7.70;;;5.47;;
16890;SDS011;8562;52.246;20.966;2022-09-09T08:17:37;7.63;;;5.17;;
16890;SDS011;8562;52.246;20.966;2022-09-09T08:20:05;7.93;;;6.07;;
16890;SDS011;8562;52.246;20.966;2022-09-09T08:22:33;9.80;;;6.27;;
16890;SDS011;8562;52.246;20.966;2022-09-09T08:24:59;8.20;;;5.43;;
16890;SDS011;8562;52.246;20.966;2022-09-09T08:27:25;9.67;;;6.07;;
16890;SDS011;8562;52.246;20.966;2022-09-09T08:29:53;7.97;;;5.87;;
16890;SDS011;8562;52.246;20.966;2022-09-09T08:32:19;7.67;;;5.63;;
16890;SDS011;8562;52.246;20.966;2022-09-09T08:34:45;10.33;;;6.37;;
16890;SDS011;8562;52.246;20.966;2022-09-09T08:37:18;7.80;;;5.83;;
16890;SDS011;8562;52.246;20.966;2022-09-09T08:39:45;10.00;;;6.00;;
16890;SDS011;8562;52.246;20.966;2022-09-09T08:50:30;8.43;;;6.13;;
16890;SDS011;8562;52.246;20.966;2022-09-09T08:53:14;11.67;;;7.03;;
16890;SDS011;8562;52.246;20.966;2022-09-09T08:58:13;8.57;;;6.77;;
16890;SDS011;8562;52.246;20.966;2022-09-09T09:10:48;9.47;;;7.43;;
16890;SDS011;8562;52.246;20.966;2022-09-09T09:13:26;12.83;;;7.60;;
16890;SDS011;8562;52.246;20.966;2022-09-09T09:15:58;10.23;;;7.33;;
16890;SDS011;8562;52.246;20.966;2022-09-09T09:18:25;9.90;;;7.10;;
16890;SDS011;8562;52.246;20.966;2022-09-09T09:21:05;9.00;;;7.43;;
16890;SDS011;8562;52.246;20.966;2022-09-09T09:23:42;10.57;;;7.30;;
16890;SDS011;8562;52.246;20.966;2022-09-09T09:26:11;10.77;;;7.53;;
16890;SDS011;8562;52.246;20.966;2022-09-09T09:28:38;12.57;;;7.63;;
16890;SDS011;8562;52.246;20.966;2022-09-09T09:31:11;8.77;;;7.77;;
16890;SDS011;8562;52.246;20.966;2022-09-09T09:33:51;11.37;;;8.63;;
16890;SDS011;8562;52.246;20.966;2022-09-09T09:36:25;13.67;;;8.90;;
16890;SDS011;8562;52.246;20.966;2022-09-09T09:39:00;13.33;;;8.73;;
16890;SDS011;8562;52.246;20.966;2022-09-09T09:41:30;10.03;;;7.73;;
16890;SDS011;8562;52.246;20.966;2022-09-09T09:43:57;13.80;;;8.30;;
16890;SDS011;8562;52.246;20.966;2022-09-09T09:46:24;11.37;;;8.77;;
16890;SDS011;8562;52.246;20.966;2022-09-09T09:49:00;12.67;;;8.50;;
16890;SDS011;8562;52.246;20.966;2022-09-09T09:51:29;13.10;;;8.67;;
16890;SDS011;8562;52.246;20.966;2022-09-09T09:54:31;11.77;;;8.53;;
16890;SDS011;8562;52.246;20.966;2022-09-09T09:56:53;13.83;;;8.67;;
16890;SDS011;8562;52.246;20.966;2022-09-09T10:01:46;14.63;;;8.90;;
16890;SDS011;8562;52.246;20.966;2022-09-09T10:06:38;14.23;;;9.13;;
16890;SDS011;8562;52.246;20.966;2022-09-09T10:12:09;13.33;;;8.30;;
16890;SDS011;8562;52.246;20.966;2022-09-09T10:19:35;17.63;;;9.30;;
16890;SDS011;8562;52.246;20.966;2022-09-09T10:40:04;15.83;;;9.23;;
16890;SDS011;8562;52.246;20.966;2022-09-09T10:42:37;17.30;;;9.60;;
16890;SDS011;8562;52.246;20.966;2022-09-09T10:55:18;15.20;;;10.37;;
16890;SDS011;8562;52.246;20.966;2022-09-09T10:57:46;18.83;;;10.07;;
16890;SDS011;8562;52.246;20.966;2022-09-09T11:00:17;16.10;;;10.00;;
16890;SDS011;8562;52.246;20.966;2022-09-09T11:02:44;21.33;;;10.83;;
16890;SDS011;8562;52.246;20.966;2022-09-09T11:05:21;13.03;;;9.37;;
16890;SDS011;8562;52.246;20.966;2022-09-09T11:13:02;15.67;;;10.60;;
16890;SDS011;8562;52.246;20.966;2022-09-09T11:15:35;14.80;;;9.87;;
16890;SDS011;8562;52.246;20.966;2022-09-09T11:18:03;22.27;;;11.47;;
16890;SDS011;8562;52.246;20.966;2022-09-09T11:20:31;18.43;;;10.27;;
16890;SDS011;8562;52.246;20.966;2022-09-09T11:25:28;19.40;;;12.07;;
16890;SDS011;8562;52.246;20.966;2022-09-09T11:30:31;20.30;;;12.27;;
16890;SDS011;8562;52.246;20.966;2022-09-09T11:40:36;25.70;;;13.60;;
16890;SDS011;8562;52.246;20.966;2022-09-09T11:43:04;26.70;;;12.83;;
16890;SDS011;8562;52.246;20.966;2022-09-09T11:45:31;19.47;;;12.23;;
16890;SDS011;8562;52.246;20.966;2022-09-09T11:47:59;22.43;;;12.43;;
16890;SDS011;8562;52.246;20.966;2022-09-09T11:53:02;24.33;;;13.43;;
16890;SDS011;8562;52.246;20.966;2022-09-09T11:55:33;26.43;;;13.47;;
16890;SDS011;8562;52.246;20.966;2022-09-09T11:58:06;23.50;;;12.53;;
16890;SDS011;8562;52.246;20.966;2022-09-09T12:05:54;21.20;;;12.30;;
16890;SDS011;8562;52.246;20.966;2022-09-09T12:08:27;18.63;;;12.10;;
16890;SDS011;8562;52.246;20.966;2022-09-09T12:10:55;21.83;;;13.03;;
16890;SDS011;8562;52.246;20.966;2022-09-09T12:13:22;21.10;;;11.70;;
16890;SDS011;8562;52.246;20.966;2022-09-09T12:15:52;20.80;;;12.17;;
16890;SDS011;8562;52.246;20.966;2022-09-09T12:18:23;19.60;;;12.23;;
16890;SDS011;8562;52.246;20.966;2022-09-09T12:21:36;21.87;;;14.00;;
16890;SDS011;8562;52.246;20.966;2022-09-09T12:23:52;26.33;;;12.70;;
16890;SDS011;8562;52.246;20.966;2022-09-09T12:36:52;17.43;;;13.00;;
16890;SDS011;8562;52.246;20.966;2022-09-09T12:39:39;26.60;;;13.50;;
16890;SDS011;8562;52.246;20.966;2022-09-09T12:42:20;21.33;;;12.27;;
16890;SDS011;8562;52.246;20.966;2022-09-09T12:44:53;19.97;;;12.50;;
16890;SDS011;8562;52.246;20.966;2022-09-09T12:47:20;26.83;;;13.40;;
16890;SDS011;8562;52.246;20.966;2022-09-09T12:49:47;21.73;;;13.70;;
16890;SDS011;8562;52.246;20.966;2022-09-09T12:54:47;29.97;;;14.97;;
16890;SDS011;8562;52.246;20.966;2022-09-09T12:57:15;23.40;;;12.70;;
16890;SDS011;8562;52.246;20.966;2022-09-09T12:59:42;30.47;;;14.87;;
16890;SDS011;8562;52.246;20.966;2022-09-09T13:02:44;24.63;;;13.73;;
16890;SDS011;8562;52.246;20.966;2022-09-09T13:05:15;26.67;;;15.10;;
16890;SDS011;8562;52.246;20.966;2022-09-09T13:07:42;24.13;;;14.67;;
16890;SDS011;8562;52.246;20.966;2022-09-09T13:10:10;31.13;;;15.83;;
16890;SDS011;8562;52.246;20.966;2022-09-09T13:12:37;30.53;;;15.97;;
16890;SDS011;8562;52.246;20.966;2022-09-09T13:15:03;27.57;;;15.00;;
16890;SDS011;8562;52.246;20.966;2022-09-09T13:17:30;27.60;;;15.50;;
16890;SDS011;8562;52.246;20.966;2022-09-09T13:19:56;26.13;;;14.50;;
16890;SDS011;8562;52.246;20.966;2022-09-09T13:22:30;27.23;;;15.87;;
16890;SDS011;8562;52.246;20.966;2022-09-09T13:27:31;30.43;;;14.57;;
16890;SDS011;8562;52.246;20.966;2022-09-09T13:29:59;32.30;;;14.67;;
16890;SDS011;8562;52.246;20.966;2022-09-09T13:32:26;22.80;;;14.57;;
16890;SDS011;8562;52.246;20.966;2022-09-09T13:37:22;27.00;;;13.40;;
16890;SDS011;8562;52.246;20.966;2022-09-09T13:39:53;26.13;;;16.03;;
16890;SDS011;8562;52.246;20.966;2022-09-09T13:42:24;26.70;;;14.30;;
16890;SDS011;8562;52.246;20.966;2022-09-09T13:44:51;25.00;;;13.53;;
16890;SDS011;8562;52.246;20.966;2022-09-09T13:47:18;24.37;;;14.17;;
16890;SDS011;8562;52.246;20.966;2022-09-09T13:49:45;29.70;;;15.73;;
16890;SDS011;8562;52.246;20.966;2022-09-09T13:52:12;29.80;;;14.10;;
16890;SDS011;8562;52.246;20.966;2022-09-09T13:54:39;30.63;;;15.73;;
16890;SDS011;8562;52.246;20.966;2022-09-09T13:57:13;28.33;;;14.63;;
16890;SDS011;8562;52.246;20.966;2022-09-09T13:59:40;32.40;;;13.80;;
16890;SDS011;8562;52.246;20.966;2022-09-09T14:02:07;29.87;;;14.00;;
16890;SDS011;8562;52.246;20.966;2022-09-09T14:04:33;25.60;;;14.17;;
16890;SDS011;8562;52.246;20.966;2022-09-09T14:07:00;23.43;;;13.87;;
16890;SDS011;8562;52.246;20.966;2022-09-09T14:09:26;30.53;;;13.63;;
16890;SDS011;8562;52.246;20.966;2022-09-09T14:11:52;23.10;;;13.40;;
16890;SDS011;8562;52.246;20.966;2022-09-09T14:14:20;22.33;;;13.70;;
16890;SDS011;8562;52.246;20.966;2022-09-09T14:16:46;26.67;;;13.80;;
16890;SDS011;8562;52.246;20.966;2022-09-09T14:19:12;25.73;;;14.30;;
16890;SDS011;8562;52.246;20.966;2022-09-09T14:21:38;27.27;;;14.60;;
16890;SDS011;8562;52.246;20.966;2022-09-09T14:24:04;33.13;;;15.37;;
16890;SDS011;8562;52.246;20.966;2022-09-09T14:26:31;26.27;;;12.80;;
16890;SDS011;8562;52.246;20.966;2022-09-09T14:28:57;28.40;;;13.13;;
16890;SDS011;8562;52.246;20.966;2022-09-09T14:31:25;27.37;;;13.63;;
16890;SDS011;8562;52.246;20.966;2022-09-09T14:33:51;29.30;;;12.70;;
16890;SDS011;8562;52.246;20.966;2022-09-09T14:36:18;27.30;;;13.23;;
16890;SDS011;8562;52.246;20.966;2022-09-09T14:38:44;22.00;;;13.47;;
16890;SDS011;8562;52.246;20.966;2022-09-09T14:41:11;32.03;;;13.53;;
16890;SDS011;8562;52.246;20.966;2022-09-09T14:43:38;26.67;;;13.77;;
16890;SDS011;8562;52.246;20.966;2022-09-09T14:46:05;24.57;;;12.17;;
16890;SDS011;8562;52.246;20.966;2022-09-09T14:48:31;24.67;;;12.70;;
16890;SDS011;8562;52.246;20.966;2022-09-09T14:51:04;22.43;;;13.40;;
16890;SDS011;8562;52.246;20.966;2022-09-09T14:53:30;23.27;;;13.00;;
16890;SDS011;8562;52.246;20.966;2022-09-09T14:56:03;18.37;;;11.10;;
16890;SDS011;8562;52.246;20.966;2022-09-09T14:58:32;24.53;;;13.23;;
16890;SDS011;8562;52.246;20.966;2022-09-09T15:01:02;21.87;;;11.77;;
16890;SDS011;8562;52.246;20.966;2022-09-09T15:03:28;22.00;;;11.13;;
16890;SDS011;8562;52.246;20.966;2022-09-09T15:05:54;24.33;;;12.20;;
16890;SDS011;8562;52.246;20.966;2022-09-09T15:08:20;18.67;;;10.77;;
16890;SDS011;8562;52.246;20.966;2022-09-09T15:10:46;21.77;;;13.23;;
16890;SDS011;8562;52.246;20.966;2022-09-09T15:13:14;21.83;;;12.33;;
16890;SDS011;8562;52.246;20.966;2022-09-09T15:15:42;26.43;;;13.07;;
16890;SDS011;8562;52.246;20.966;2022-09-09T15:18:09;25.23;;;12.60;;
16890;SDS011;8562;52.246;20.966;2022-09-09T15:20:35;29.17;;;12.90;;
16890;SDS011;8562;52.246;20.966;2022-09-09T15:23:02;23.57;;;12.93;;
16890;SDS011;8562;52.246;20.966;2022-09-09T15:25:29;26.60;;;13.60;;
16890;SDS011;8562;52.246;20.966;2022-09-09T15:27:55;24.90;;;13.23;;
16890;SDS011;8562;52.246;20.966;2022-09-09T15:30:21;25.37;;;13.10;;
16890;SDS011;8562;52.246;20.966;2022-09-09T15:32:47;24.97;;;13.60;;
16890;SDS011;8562;52.246;20.966;2022-09-09T15:35:13;22.50;;;13.40;;
16890;SDS011;8562;52.246;20.966;2022-09-09T15:37:40;25.87;;;13.80;;
16890;SDS011;8562;52.246;20.966;2022-09-09T15:40:06;23.80;;;14.00;;
16890;SDS011;8562;52.246;20.966;2022-09-09T15:42:32;27.60;;;13.63;;
16890;SDS011;8562;52.246;20.966;2022-09-09T15:44:58;24.67;;;14.60;;
16890;SDS011;8562;52.246;20.966;2022-09-09T15:47:25;22.00;;;13.03;;
16890;SDS011;8562;52.246;20.966;2022-09-09T15:49:51;22.20;;;13.83;;
16890;SDS011;8562;52.246;20.966;2022-09-09T15:52:18;25.27;;;13.80;;
16890;SDS011;8562;52.246;20.966;2022-09-09T15:54:44;23.80;;;14.23;;
16890;SDS011;8562;52.246;20.966;2022-09-09T15:57:11;25.60;;;13.10;;
16890;SDS011;8562;52.246;20.966;2022-09-09T15:59:38;24.93;;;14.77;;
16890;SDS011;8562;52.246;20.966;2022-09-09T16:02:05;25.10;;;13.30;;
16890;SDS011;8562;52.246;20.966;2022-09-09T16:04:31;26.10;;;13.77;;
16890;SDS011;8562;52.246;20.966;2022-09-09T16:07:02;27.30;;;15.07;;
16890;SDS011;8562;52.246;20.966;2022-09-09T16:09:29;23.60;;;13.83;;
16890;SDS011;8562;52.246;20.966;2022-09-09T16:11:56;23.20;;;12.20;;
16890;SDS011;8562;52.246;20.966;2022-09-09T16:14:23;25.00;;;12.63;;
16890;SDS011;8562;52.246;20.966;2022-09-09T16:16:50;25.67;;;13.50;;
16890;SDS011;8562;52.246;20.966;2022-09-09T16:19:17;25.37;;;13.23;;
16890;SDS011;8562;52.246;20.966;2022-09-09T16:21:45;22.37;;;13.73;;
16890;SDS011;8562;52.246;20.966;2022-09-09T16:24:12;26.07;;;13.07;;
16890;SDS011;8562;52.246;20.966;2022-09-09T16:26:40;26.20;;;12.80;;
16890;SDS011;8562;52.246;20.966;2022-09-09T16:29:08;23.80;;;12.40;;
16890;SDS011;8562;52.246;20.966;2022-09-09T16:31:34;26.97;;;13.03;;
16890;SDS011;8562;52.246;20.966;2022-09-09T16:34:00;26.37;;;14.23;;
16890;SDS011;8562;52.246;20.966;2022-09-09T16:36:28;24.30;;;13.33;;
16890;SDS011;8562;52.246;20.966;2022-09-09T16:38:59;26.03;;;13.70;;
16890;SDS011;8562;52.246;20.966;2022-09-09T16:41:26;21.23;;;12.90;;
16890;SDS011;8562;52.246;20.966;2022-09-09T16:43:53;24.10;;;13.53;;
16890;SDS011;8562;52.246;20.966;2022-09-09T16:46:20;22.37;;;12.77;;
16890;SDS011;8562;52.246;20.966;2022-09-09T16:48:47;22.77;;;11.93;;
16890;SDS011;8562;52.246;20.966;2022-09-09T16:51:22;19.57;;;11.27;;
16890;SDS011;8562;52.246;20.966;2022-09-09T16:53:49;25.17;;;12.87;;
16890;SDS011;8562;52.246;20.966;2022-09-09T16:56:16;21.23;;;12.83;;
16890;SDS011;8562;52.246;20.966;2022-09-09T16:58:44;21.53;;;12.80;;
16890;SDS011;8562;52.246;20.966;2022-09-09T17:01:15;22.80;;;11.57;;